GB-0596 weather

Public forecast

Using degrees Celsius for public forecast. Weather courtesy of forecast.io.

Closest aviation weather report (METAR) to Palmer Moor Farm Airstrip

Closest report is East Midlands Airport, 17.6 nm (32.7 km) ESE. Retrieved 2020/08/12 18:20 UTC (0 seconds ago):

EGNX 121820Z 04009KT CAVOK 28/17 Q1012

Closest aviation forecast (TAF) to Palmer Moor Farm Airstrip

Closest forecast is East Midlands Airport, 17.6 nm (32.7 km) ESE. Retrieved 2020/08/12 18:00 UTC (14 minutes ago):

TAF EGNX 121655Z 1218/1318 05008KT 9999 FEW045 PROB30 TEMPO 1218/1221 VRB20G30KT 2000 +TSRAGR TEMPO 1221/1311 6000 TEMPO 1303/1310 BKN014 PROB30 TEMPO 1303/1308 4000 BR BKN004 PROB30 TEMPO 1312/1318 VRB20G30KT 2000 +TSRAGR